National Weather Service United States Department of Commerce

Storm System Expected To Develop Across Southern U.S.; Fire Weather Concerns In Southern California

A system is expected to develop across the southern tier of the U.S. and produce a few hazards. Isolated strong to severe thunderstorms and locally heavy rain is possible from southeast Texas to southwest Louisiana, while heavy accumulating snow is expected across parts of Kansas and Oklahoma. Meanwhile, elevated to critical fire weather concerns are forecast through Friday in southern California. Read More >

                                       ZTL Airspace Summary / KATL TAF                    For ATC Planning Purposes Only
ZTL Airspace Summary:
 

Updated:  
 

Hartsfield-Jackson Atlanta International Airport Terminal Aerodrome Forecast:
 
 

 

ATL METAR:  
 

Go to KATL TAF TDA
Go to KATL TAF TDA

 
ATL TRACON HAZARDS
ATL TRACON: SFC-14000
AVG CIG BASE WHERE REPORTED BLW 10000FT: NONE REPORTED
LOWEST REPORTED CIG: NONE REPORTED
LOWEST REPORTED FLIGHT CAT: VFR
METARS:
KHMP 040555Z AUTO 00000KT 10SM CLR 21/20 A3002 RMK AO2 T02130201 10269 20212
KFFC 040553Z AUTO 00000KT 9SM CLR 23/21 A2999 RMK AO2 SLP147 T02330211 10278 20233 58000
KVPC 040553Z AUTO 00000KT 10SM CLR 22/19 A2996 RMK AO2 SLP133 T02170194 10278 20211 58001
KFTY 040553Z 21004KT 10SM FEW046 23/18 A2997 RMK AO2 SLP138 T02280183 10289 20211 50000
KCVC 040535Z AUTO 00000KT 10SM SCT049 22/20 A2998 RMK AO2 PNO
KPDK 040553Z AUTO 17003KT 10SM FEW039 22/19 A2997 RMK AO2 SLP132 T02170194 10283 20217 58001
KPUJ 040555Z AUTO 00000KT 10SM CLR 21/18 A2998 RMK AO2
KCCO 040535Z AUTO 00000KT 10SM CLR 24/22 A3000 RMK AO2 T02350222
KMGE 040556Z AUTO 19005KT 10SM CLR 23/19 A2997 RMK AO2 SLP138 T02250191 10274 20221 58002 $
KCTJ 040555Z AUTO 00000KT 10SM CLR 20/19 A3002 RMK AO2 T02000192
K6A2 040555Z AUTO 21004KT 10SM CLR 22/22 A3000 RMK AO2
KRYY 040550Z AUTO 22004KT 10SM CLR 23/20 A2997 RMK AO2 SLP870 6//// T02330200 10272 20228 58003 PNO $
KLZU 040556Z AUTO 19004KT 10SM FEW035 22/21 A2998 RMK AO2 SLP151 6//// T02220211 10289 20217 58002
KATL 040552Z 21005KT 10SM FEW060 SCT150 SCT250 23/19 A2998 RMK AO2 SLP141 T02280194 10283 20228 58001
KD73 040535Z AUTO 32004KT 10SM SCT048 23/21 A2999 RMK AO2 T02300215

ATL TRACON HAZARD

Forecast Surface Map Loop / Collaborative Convective Forecast Product / Vertical Wind Profile
Weather Map

 

AIRMETs & SIGMETS/ Southeast Radar loop / Satellite Image (click on image to enlarge)
Weather Map Southeast Radar Loop

satellite